Time;durP1;ratioP1;P1;durP2;ratioP2;P2;SDS_P1;SDS_P2;PMS_P1;PMS_P2;Temp;Humidity;BMP_temperature;BMP_pressure;BME280_temperature;BME280_humidity;BME280_pressure;Samples;Min_cycle;Max_cycle;Signal;HPM_P1;HPM_P2
2021/08/29 00:00:11;;;;;;;15.00;4.70;;;;;;;;;;5009502;28;20255;-74
2021/08/29 00:02:39;;;;;;;10.03;4.40;;;;;;;;;;5009478;28;20215;-74
2021/08/29 00:05:07;;;;;;;13.13;4.83;;;;;;;;;;5006793;28;20217;-74
2021/08/29 00:07:34;;;;;;;10.63;4.53;;;;;;;;;;5007608;28;20262;-74
2021/08/29 00:10:00;;;;;;;9.00;4.37;;;;;;;;;;5008706;28;20228;-74
2021/08/29 00:12:27;;;;;;;9.03;4.40;;;;;;;;;;5007774;28;20218;-74
2021/08/29 00:14:54;;;;;;;11.13;5.20;;;;;;;;;;5008456;28;20241;-74
2021/08/29 00:17:20;;;;;;;9.70;5.10;;;;;;;;;;5012418;28;20213;-74
2021/08/29 00:19:48;;;;;;;10.30;4.60;;;;;;;;;;5011389;28;20240;-74
2021/08/29 00:22:14;;;;;;;6.73;4.23;;;;;;;;;;5011950;28;21043;-74
2021/08/29 00:24:41;;;;;;;10.70;4.57;;;;;;;;;;5010704;28;20658;-74
2021/08/29 00:27:07;;;;;;;10.33;4.80;;;;;;;;;;5010784;28;20223;-74
2021/08/29 00:29:33;;;;;;;10.93;4.47;;;;;;;;;;5011946;28;20208;-74
2021/08/29 00:32:00;;;;;;;7.63;4.40;;;;;;;;;;5012505;28;20219;-74
2021/08/29 00:34:26;;;;;;;12.20;4.73;;;;;;;;;;5009741;28;20636;-74
2021/08/29 00:36:54;;;;;;;10.33;4.50;;;;;;;;;;5009546;28;20597;-74
2021/08/29 00:39:20;;;;;;;8.07;4.43;;;;;;;;;;5010320;28;20240;-74
2021/08/29 00:41:47;;;;;;;9.27;4.27;;;;;;;;;;5010353;28;20263;-74
2021/08/29 00:44:14;;;;;;;9.37;4.57;;;;;;;;;;5010152;28;20667;-74
2021/08/29 00:46:41;;;;;;;10.00;4.90;;;;;;;;;;5011763;28;20721;-74
2021/08/29 00:49:10;;;;;;;9.30;4.30;;;;;;;;;;5012567;28;20215;-74
2021/08/29 00:51:36;;;;;;;7.97;4.20;;;;;;;;;;5010854;28;20221;-74
2021/08/29 00:54:04;;;;;;;9.07;4.33;;;;;;;;;;5009963;28;20614;-74
2021/08/29 00:56:30;;;;;;;9.60;4.27;;;;;;;;;;5009935;28;20250;-74
2021/08/29 00:58:56;;;;;;;9.17;4.17;;;;;;;;;;5009537;28;20239;-74
2021/08/29 01:01:31;;;;;;;8.80;4.03;;;;;;;;;;5011109;28;20215;-74
2021/08/29 01:04:03;;;;;;;7.87;4.23;;;;;;;;;;5011723;28;20268;-74
2021/08/29 01:06:34;;;;;;;7.23;4.60;;;;;;;;;;5008223;28;20220;-74
2021/08/29 01:09:06;;;;;;;12.23;4.53;;;;;;;;;;5007754;28;20748;-74
2021/08/29 01:11:33;;;;;;;6.97;4.30;;;;;;;;;;5011061;28;20646;-74
2021/08/29 01:14:04;;;;;;;8.53;4.47;;;;;;;;;;5010767;28;20244;-74
2021/08/29 01:16:34;;;;;;;10.80;4.20;;;;;;;;;;5012536;28;20724;-74
2021/08/29 01:19:04;;;;;;;7.97;4.33;;;;;;;;;;5010011;28;20306;-74
2021/08/29 01:21:35;;;;;;;8.83;4.80;;;;;;;;;;5008910;28;20219;-74
2021/08/29 01:24:08;;;;;;;7.43;4.47;;;;;;;;;;5012463;28;20281;-74
2021/08/29 01:26:41;;;;;;;7.30;4.07;;;;;;;;;;5011065;28;20772;-74
2021/08/29 01:29:12;;;;;;;8.77;4.10;;;;;;;;;;5008483;28;20214;-74
2021/08/29 01:31:41;;;;;;;6.60;4.20;;;;;;;;;;5010244;28;20266;-73
2021/08/29 01:34:10;;;;;;;10.03;4.17;;;;;;;;;;5009028;28;20220;-74
2021/08/29 01:36:39;;;;;;;11.33;4.57;;;;;;;;;;5012827;28;20220;-74
2021/08/29 01:39:07;;;;;;;7.40;3.93;;;;;;;;;;5010702;28;20244;-74
2021/08/29 01:41:35;;;;;;;8.30;4.53;;;;;;;;;;5009121;28;20262;-74
2021/08/29 01:44:03;;;;;;;7.53;4.57;;;;;;;;;;5009476;28;20631;-74
2021/08/29 01:46:33;;;;;;;8.53;4.23;;;;;;;;;;5012594;28;20229;-74
2021/08/29 01:49:00;;;;;;;5.70;4.10;;;;;;;;;;5009240;28;20224;-74
2021/08/29 01:51:27;;;;;;;9.70;4.47;;;;;;;;;;5009496;28;20211;-74
2021/08/29 01:53:53;;;;;;;9.13;4.73;;;;;;;;;;5007747;28;20294;-74
2021/08/29 01:56:19;;;;;;;5.93;4.77;;;;;;;;;;5008816;28;20271;-74
2021/08/29 01:58:46;;;;;;;9.20;4.40;;;;;;;;;;5010166;28;20235;-74
2021/08/29 02:01:13;;;;;;;9.00;4.73;;;;;;;;;;5010361;28;20322;-74
2021/08/29 02:03:43;;;;;;;6.83;4.20;;;;;;;;;;5006129;28;20614;-74
2021/08/29 02:06:13;;;;;;;8.90;4.07;;;;;;;;;;5009812;28;20221;-74
2021/08/29 02:08:42;;;;;;;6.37;3.80;;;;;;;;;;5008567;28;20236;-74
2021/08/29 02:11:10;;;;;;;7.70;4.43;;;;;;;;;;5008742;28;20220;-74
2021/08/29 02:13:42;;;;;;;6.57;4.00;;;;;;;;;;5007255;28;20216;-74
2021/08/29 02:16:16;;;;;;;6.83;4.03;;;;;;;;;;5006233;28;20204;-75
2021/08/29 02:18:47;;;;;;;8.53;3.97;;;;;;;;;;5009354;28;20270;-74
2021/08/29 02:21:14;;;;;;;9.50;3.73;;;;;;;;;;5007746;28;20286;-74
2021/08/29 02:23:41;;;;;;;9.77;4.17;;;;;;;;;;5010057;28;20695;-74
2021/08/29 02:26:08;;;;;;;7.13;3.87;;;;;;;;;;5006475;28;20217;-74
2021/08/29 02:28:34;;;;;;;7.83;3.73;;;;;;;;;;5006319;28;20201;-74
2021/08/29 02:31:01;;;;;;;8.83;3.67;;;;;;;;;;5008003;28;20212;-74
2021/08/29 02:33:28;;;;;;;7.83;3.70;;;;;;;;;;5008237;28;20218;-74
2021/08/29 02:35:58;;;;;;;9.80;3.60;;;;;;;;;;5004789;28;21132;-74
2021/08/29 02:38:25;;;;;;;8.27;3.57;;;;;;;;;;5007333;28;20229;-74
2021/08/29 02:40:54;;;;;;;8.00;3.57;;;;;;;;;;5005926;28;20258;-74
2021/08/29 02:43:21;;;;;;;6.87;3.97;;;;;;;;;;5008031;28;20264;-74
2021/08/29 02:45:48;;;;;;;10.87;4.40;;;;;;;;;;5009719;28;20212;-74
2021/08/29 02:48:16;;;;;;;7.27;3.17;;;;;;;;;;5008899;28;20263;-74
2021/08/29 02:50:45;;;;;;;10.70;3.50;;;;;;;;;;5007135;28;20218;-74
2021/08/29 02:53:15;;;;;;;13.90;4.07;;;;;;;;;;5008389;28;20672;-74
2021/08/29 02:55:43;;;;;;;10.57;3.67;;;;;;;;;;5008215;28;20220;-74
2021/08/29 02:58:09;;;;;;;7.80;3.50;;;;;;;;;;5008677;28;20225;-74
2021/08/29 03:00:36;;;;;;;6.67;3.40;;;;;;;;;;5004211;28;20252;-74
2021/08/29 03:03:03;;;;;;;11.53;3.40;;;;;;;;;;5005765;28;20225;-74
2021/08/29 03:05:29;;;;;;;11.67;3.80;;;;;;;;;;5007799;28;20285;-74
2021/08/29 03:07:56;;;;;;;11.37;4.07;;;;;;;;;;5004103;28;20239;-74
2021/08/29 03:10:24;;;;;;;10.70;3.30;;;;;;;;;;5005630;28;20212;-73
2021/08/29 03:12:51;;;;;;;11.63;3.47;;;;;;;;;;5008326;28;20237;-74
2021/08/29 03:15:17;;;;;;;12.40;4.43;;;;;;;;;;5008705;28;20287;-74
2021/08/29 03:17:44;;;;;;;9.77;3.83;;;;;;;;;;5005310;28;20220;-74
2021/08/29 03:20:11;;;;;;;7.63;3.80;;;;;;;;;;5006945;28;20289;-74
2021/08/29 03:22:39;;;;;;;11.37;3.70;;;;;;;;;;5009688;28;20275;-74
2021/08/29 03:25:08;;;;;;;14.37;4.50;;;;;;;;;;5010443;28;20239;-74
2021/08/29 03:27:36;;;;;;;12.43;4.60;;;;;;;;;;5005898;28;20640;-74
2021/08/29 03:30:03;;;;;;;7.03;3.70;;;;;;;;;;5005397;28;20216;-74
2021/08/29 03:32:29;;;;;;;10.20;4.33;;;;;;;;;;5009428;28;20254;-74
2021/08/29 03:35:00;;;;;;;11.00;3.33;;;;;;;;;;5011238;28;20216;-74
2021/08/29 03:37:27;;;;;;;12.70;4.03;;;;;;;;;;5006286;28;20304;-74
2021/08/29 03:39:54;;;;;;;12.50;4.57;;;;;;;;;;5009166;28;20233;-74
2021/08/29 03:42:21;;;;;;;6.77;3.20;;;;;;;;;;5006084;28;20686;-74
2021/08/29 03:44:49;;;;;;;13.03;4.23;;;;;;;;;;5007826;28;20243;-74
2021/08/29 03:47:17;;;;;;;14.23;4.70;;;;;;;;;;5007105;28;20286;-74
2021/08/29 03:49:44;;;;;;;17.97;4.47;;;;;;;;;;5008480;28;20212;-74
2021/08/29 03:52:13;;;;;;;14.30;4.30;;;;;;;;;;5010016;28;20268;-74
2021/08/29 03:54:40;;;;;;;16.40;5.73;;;;;;;;;;5013100;28;20574;-74
2021/08/29 03:57:08;;;;;;;15.37;4.80;;;;;;;;;;5013290;28;20220;-74
2021/08/29 03:59:34;;;;;;;9.60;3.83;;;;;;;;;;5010597;28;20251;-74
2021/08/29 04:02:04;;;;;;;10.53;4.07;;;;;;;;;;5010243;28;21032;-74
2021/08/29 04:04:32;;;;;;;11.77;4.00;;;;;;;;;;5009436;28;20220;-73
2021/08/29 04:07:01;;;;;;;19.00;5.00;;;;;;;;;;5014289;28;20208;-74
2021/08/29 04:09:31;;;;;;;17.57;4.93;;;;;;;;;;5008430;28;20247;-73
2021/08/29 04:11:57;;;;;;;14.00;4.23;;;;;;;;;;5010625;28;20676;-74
2021/08/29 04:14:25;;;;;;;12.07;4.00;;;;;;;;;;5009160;28;20339;-74
2021/08/29 04:16:54;;;;;;;11.50;3.97;;;;;;;;;;5009764;28;20247;-74
2021/08/29 04:19:24;;;;;;;14.53;5.13;;;;;;;;;;5011557;28;20232;-74
2021/08/29 04:21:51;;;;;;;13.33;5.33;;;;;;;;;;5008347;28;20287;-73
2021/08/29 04:24:18;;;;;;;10.20;4.20;;;;;;;;;;5010878;28;20232;-74
2021/08/29 04:26:45;;;;;;;12.57;4.10;;;;;;;;;;5011817;28;20801;-74
2021/08/29 04:29:12;;;;;;;9.23;4.30;;;;;;;;;;5009002;28;20210;-74
2021/08/29 04:31:39;;;;;;;13.73;4.20;;;;;;;;;;5010313;28;20883;-73
2021/08/29 04:34:07;;;;;;;11.93;4.30;;;;;;;;;;5011061;28;20215;-73
2021/08/29 04:36:37;;;;;;;13.63;4.53;;;;;;;;;;5011058;28;20249;-73
2021/08/29 04:39:05;;;;;;;17.53;4.33;;;;;;;;;;5008973;28;20241;-73
2021/08/29 04:41:32;;;;;;;13.83;4.30;;;;;;;;;;5009044;28;20223;-73
2021/08/29 04:43:58;;;;;;;9.03;3.97;;;;;;;;;;5009330;28;20223;-73
2021/08/29 04:46:24;;;;;;;12.90;3.87;;;;;;;;;;5010348;28;20220;-72
2021/08/29 04:48:51;;;;;;;9.40;4.37;;;;;;;;;;5010192;28;20221;-73
2021/08/29 04:51:17;;;;;;;14.67;4.13;;;;;;;;;;5010306;28;20211;-73
2021/08/29 04:53:45;;;;;;;12.67;4.07;;;;;;;;;;5011622;28;20807;-72
2021/08/29 04:56:12;;;;;;;14.40;4.37;;;;;;;;;;5007358;28;20321;-72
2021/08/29 04:58:38;;;;;;;11.97;3.67;;;;;;;;;;5007997;28;20217;-72
2021/08/29 05:01:05;;;;;;;13.50;4.07;;;;;;;;;;5010430;28;20717;-72
2021/08/29 05:03:31;;;;;;;18.40;4.33;;;;;;;;;;5008372;28;20220;-71
2021/08/29 05:05:58;;;;;;;13.90;5.20;;;;;;;;;;5008815;28;20644;-72
2021/08/29 05:08:24;;;;;;;12.57;4.17;;;;;;;;;;5006769;28;20247;-72
2021/08/29 05:10:52;;;;;;;7.20;3.40;;;;;;;;;;5008192;28;20279;-72
2021/08/29 05:13:18;;;;;;;14.00;3.83;;;;;;;;;;5009871;28;20212;-72
2021/08/29 05:15:45;;;;;;;11.73;3.50;;;;;;;;;;5007806;28;20224;-72
2021/08/29 05:18:11;;;;;;;13.90;3.80;;;;;;;;;;5009292;28;20235;-72
2021/08/29 05:20:38;;;;;;;9.77;3.43;;;;;;;;;;5008707;28;20240;-72
2021/08/29 05:23:04;;;;;;;11.17;4.03;;;;;;;;;;5008648;28;20224;-72
2021/08/29 05:25:30;;;;;;;16.83;4.00;;;;;;;;;;5005442;28;20223;-72
2021/08/29 05:27:58;;;;;;;9.87;3.40;;;;;;;;;;5008265;28;20284;-72
2021/08/29 05:30:25;;;;;;;9.03;3.87;;;;;;;;;;5009086;28;20619;-72
2021/08/29 05:32:51;;;;;;;11.27;4.00;;;;;;;;;;5006479;28;20224;-72
2021/08/29 05:35:18;;;;;;;11.53;4.13;;;;;;;;;;5006668;28;20213;-72
2021/08/29 05:37:44;;;;;;;12.93;4.03;;;;;;;;;;5007057;28;20298;-72
2021/08/29 05:40:12;;;;;;;14.97;4.13;;;;;;;;;;5006042;28;20299;-71
2021/08/29 05:42:38;;;;;;;11.57;4.33;;;;;;;;;;5007094;28;20209;-72
2021/08/29 05:45:06;;;;;;;11.80;3.63;;;;;;;;;;5007119;28;20216;-72
2021/08/29 05:47:33;;;;;;;13.83;4.43;;;;;;;;;;5008132;28;21235;-72
2021/08/29 05:49:59;;;;;;;11.30;3.33;;;;;;;;;;5006168;28;20587;-72
2021/08/29 05:52:25;;;;;;;10.70;3.50;;;;;;;;;;5007614;28;20538;-72
2021/08/29 05:54:52;;;;;;;12.93;4.43;;;;;;;;;;5009323;28;20232;-72
2021/08/29 05:57:18;;;;;;;10.97;3.50;;;;;;;;;;5006973;28;20818;-72
2021/08/29 05:59:44;;;;;;;11.10;4.43;;;;;;;;;;5008689;28;20245;-72
2021/08/29 06:02:12;;;;;;;9.20;3.23;;;;;;;;;;5010304;28;20224;-72
2021/08/29 06:04:41;;;;;;;13.90;4.57;;;;;;;;;;5007939;28;20274;-72
2021/08/29 06:07:07;;;;;;;10.10;4.30;;;;;;;;;;5007882;28;20220;-72
2021/08/29 06:09:34;;;;;;;9.33;4.00;;;;;;;;;;5008870;28;20264;-72
2021/08/29 06:12:00;;;;;;;14.53;4.43;;;;;;;;;;5008821;28;20247;-71
2021/08/29 06:14:27;;;;;;;11.80;3.80;;;;;;;;;;5007587;28;20315;-71
2021/08/29 06:16:53;;;;;;;10.00;3.40;;;;;;;;;;5009072;28;20214;-72
2021/08/29 06:19:21;;;;;;;8.90;3.60;;;;;;;;;;5008534;28;20212;-72
2021/08/29 06:21:47;;;;;;;10.53;3.60;;;;;;;;;;5008546;28;20223;-72
2021/08/29 06:24:13;;;;;;;8.03;3.20;;;;;;;;;;5005934;28;20283;-72
2021/08/29 06:26:40;;;;;;;13.07;3.93;;;;;;;;;;5006152;28;20221;-71
2021/08/29 06:29:06;;;;;;;10.63;3.33;;;;;;;;;;5006906;28;20280;-72
2021/08/29 06:31:33;;;;;;;10.27;4.13;;;;;;;;;;5006513;28;20215;-72
2021/08/29 06:33:59;;;;;;;13.90;3.60;;;;;;;;;;5007711;28;20766;-72
2021/08/29 06:36:27;;;;;;;11.67;4.20;;;;;;;;;;5010208;28;20314;-72
2021/08/29 06:38:57;;;;;;;15.20;4.40;;;;;;;;;;5006690;28;20238;-72
2021/08/29 06:41:23;;;;;;;9.30;3.53;;;;;;;;;;5006259;28;20233;-72
2021/08/29 06:43:50;;;;;;;19.70;3.77;;;;;;;;;;5006145;28;20219;-72
2021/08/29 06:46:16;;;;;;;10.13;3.53;;;;;;;;;;5010468;28;20678;-72
2021/08/29 06:48:43;;;;;;;11.27;3.37;;;;;;;;;;5008078;28;20659;-72
2021/08/29 06:51:09;;;;;;;13.23;3.30;;;;;;;;;;5006982;28;20608;-72
2021/08/29 06:53:37;;;;;;;11.00;3.77;;;;;;;;;;5008868;28;20284;-72
2021/08/29 06:56:03;;;;;;;11.27;4.20;;;;;;;;;;5008856;28;20219;-72
2021/08/29 06:58:29;;;;;;;10.20;3.27;;;;;;;;;;5006629;28;20265;-72
2021/08/29 07:00:56;;;;;;;12.37;4.03;;;;;;;;;;5006918;28;20273;-72
2021/08/29 07:03:22;;;;;;;13.73;4.10;;;;;;;;;;5004832;28;20374;-72
2021/08/29 07:05:48;;;;;;;9.03;4.10;;;;;;;;;;5006030;28;20216;-72
2021/08/29 07:08:15;;;;;;;8.93;3.57;;;;;;;;;;5005673;28;20644;-73
2021/08/29 07:10:43;;;;;;;10.43;3.80;;;;;;;;;;4996419;28;20299;-73
2021/08/29 07:13:09;;;;;;;15.17;4.00;;;;;;;;;;5007344;28;20643;-73
2021/08/29 07:15:35;;;;;;;11.10;4.20;;;;;;;;;;5005927;28;20808;-74
2021/08/29 07:18:02;;;;;;;14.00;4.00;;;;;;;;;;5005144;28;20353;-73
2021/08/29 07:20:28;;;;;;;15.17;4.20;;;;;;;;;;5005218;28;20240;-74
2021/08/29 07:22:54;;;;;;;8.97;4.20;;;;;;;;;;5005698;28;20212;-73
2021/08/29 07:25:21;;;;;;;11.63;3.67;;;;;;;;;;5005650;28;20215;-73
2021/08/29 07:27:49;;;;;;;12.27;4.50;;;;;;;;;;5005869;28;20828;-74
2021/08/29 07:30:15;;;;;;;12.57;4.03;;;;;;;;;;5007833;28;20350;-74
2021/08/29 07:32:42;;;;;;;13.30;3.87;;;;;;;;;;5008063;28;20220;-74
2021/08/29 07:35:09;;;;;;;11.43;3.50;;;;;;;;;;5006162;28;20285;-74
2021/08/29 07:37:35;;;;;;;15.60;4.43;;;;;;;;;;5008191;28;20656;-72
2021/08/29 07:40:01;;;;;;;12.93;4.53;;;;;;;;;;5007102;28;20310;-72
2021/08/29 07:42:28;;;;;;;13.60;3.87;;;;;;;;;;5007627;28;20223;-72
2021/08/29 07:44:56;;;;;;;13.23;4.10;;;;;;;;;;5007072;28;20232;-72
2021/08/29 07:47:24;;;;;;;15.80;3.60;;;;;;;;;;5007358;28;20247;-72
2021/08/29 07:49:51;;;;;;;18.33;3.63;;;;;;;;;;5008157;28;20221;-72
2021/08/29 07:52:17;;;;;;;16.10;3.70;;;;;;;;;;5004273;28;20219;-72
2021/08/29 07:54:43;;;;;;;12.40;3.37;;;;;;;;;;5005069;28;20228;-72
2021/08/29 07:57:10;;;;;;;13.47;3.80;;;;;;;;;;5009606;28;21091;-72
2021/08/29 07:59:36;;;;;;;14.60;3.60;;;;;;;;;;5005868;28;20315;-72
2021/08/29 08:02:04;;;;;;;12.90;3.67;;;;;;;;;;5004145;28;20279;-73
2021/08/29 08:04:31;;;;;;;12.43;3.53;;;;;;;;;;5007974;28;20207;-72
2021/08/29 08:06:57;;;;;;;13.90;3.83;;;;;;;;;;5007925;28;20225;-72
2021/08/29 08:09:23;;;;;;;24.40;4.73;;;;;;;;;;5004753;28;20275;-72
2021/08/29 08:11:50;;;;;;;17.97;3.80;;;;;;;;;;5004620;28;20568;-75
2021/08/29 08:14:16;;;;;;;20.10;4.57;;;;;;;;;;5004936;28;20262;-75
2021/08/29 08:16:42;;;;;;;15.10;3.97;;;;;;;;;;5007545;28;20212;-72
2021/08/29 08:19:10;;;;;;;15.83;4.00;;;;;;;;;;5008880;28;20270;-73
2021/08/29 08:21:37;;;;;;;14.17;4.23;;;;;;;;;;5007253;28;20251;-74
2021/08/29 08:24:03;;;;;;;16.20;5.23;;;;;;;;;;5006672;28;20294;-74
2021/08/29 08:26:30;;;;;;;14.17;4.70;;;;;;;;;;5007547;28;20610;-74
2021/08/29 08:28:56;;;;;;;17.90;4.40;;;;;;;;;;5007607;28;20212;-74
2021/08/29 08:31:23;;;;;;;14.77;4.87;;;;;;;;;;5004972;28;20701;-74
2021/08/29 08:33:50;;;;;;;13.70;5.13;;;;;;;;;;5006121;28;20213;-73
2021/08/29 08:36:18;;;;;;;13.77;5.17;;;;;;;;;;5006986;28;20212;-73
2021/08/29 08:38:44;;;;;;;16.67;5.23;;;;;;;;;;5009942;28;20278;-73
2021/08/29 08:41:10;;;;;;;21.73;6.07;;;;;;;;;;5010352;28;20244;-72
2021/08/29 08:43:37;;;;;;;16.83;5.47;;;;;;;;;;5008937;28;20224;-73
2021/08/29 08:46:04;;;;;;;19.03;5.50;;;;;;;;;;5006706;28;20647;-72
2021/08/29 08:48:31;;;;;;;17.63;6.57;;;;;;;;;;5008695;28;20216;-73
2021/08/29 08:50:58;;;;;;;17.30;5.20;;;;;;;;;;5009771;28;20211;-73
2021/08/29 08:53:28;;;;;;;19.90;6.37;;;;;;;;;;5007787;28;20227;-72
2021/08/29 08:55:55;;;;;;;20.60;6.10;;;;;;;;;;5009573;28;20246;-72
2021/08/29 08:58:21;;;;;;;16.20;5.77;;;;;;;;;;5009791;28;20319;-72
2021/08/29 09:00:48;;;;;;;12.30;5.10;;;;;;;;;;5008835;28;20240;-72
2021/08/29 09:03:16;;;;;;;13.43;5.40;;;;;;;;;;5009672;28;20220;-72
2021/08/29 09:05:42;;;;;;;15.63;5.03;;;;;;;;;;5007836;28;20220;-72
2021/08/29 09:08:09;;;;;;;15.00;5.60;;;;;;;;;;5009949;28;20569;-72
2021/08/29 09:10:37;;;;;;;18.53;5.63;;;;;;;;;;5007907;28;20212;-71
2021/08/29 09:13:05;;;;;;;18.67;6.07;;;;;;;;;;5008177;28;20220;-71
2021/08/29 09:15:32;;;;;;;19.77;6.73;;;;;;;;;;5007607;28;20240;-71
2021/08/29 09:18:00;;;;;;;15.50;6.97;;;;;;;;;;5009037;28;20414;-72
2021/08/29 09:20:28;;;;;;;16.63;5.50;;;;;;;;;;5007732;28;20215;-71
2021/08/29 09:22:57;;;;;;;16.87;6.50;;;;;;;;;;5009765;28;20267;-72
2021/08/29 09:25:26;;;;;;;17.57;6.27;;;;;;;;;;5006329;28;20232;-72
2021/08/29 09:27:56;;;;;;;18.20;7.00;;;;;;;;;;5008996;28;20274;-72
2021/08/29 09:30:24;;;;;;;15.97;5.60;;;;;;;;;;5009239;28;20755;-72
2021/08/29 09:32:54;;;;;;;14.50;5.27;;;;;;;;;;5008192;28;20221;-71
2021/08/29 09:35:22;;;;;;;16.00;5.03;;;;;;;;;;5008403;28;20245;-71
2021/08/29 09:37:48;;;;;;;15.27;5.83;;;;;;;;;;5007180;28;20641;-72
2021/08/29 09:40:17;;;;;;;12.83;5.57;;;;;;;;;;5006041;28;20216;-72
2021/08/29 09:42:45;;;;;;;13.57;5.60;;;;;;;;;;5007334;28;20575;-72
2021/08/29 09:45:20;;;;;;;11.47;5.03;;;;;;;;;;5007668;28;20208;-71
2021/08/29 09:47:47;;;;;;;10.60;5.07;;;;;;;;;;5007616;28;20300;-72
2021/08/29 09:50:14;;;;;;;10.80;4.43;;;;;;;;;;5006275;28;20220;-72
2021/08/29 09:52:40;;;;;;;10.53;3.97;;;;;;;;;;5006411;28;20266;-71
2021/08/29 09:55:08;;;;;;;9.93;4.50;;;;;;;;;;5007324;28;20232;-71
2021/08/29 09:57:34;;;;;;;13.50;5.23;;;;;;;;;;5007566;28;20261;-71
2021/08/29 10:00:01;;;;;;;12.60;4.30;;;;;;;;;;5003673;28;20247;-71
2021/08/29 10:02:30;;;;;;;12.07;5.10;;;;;;;;;;5006928;28;20642;-72
2021/08/29 10:05:12;;;;;;;11.80;5.17;;;;;;;;;;5005984;28;20847;-72
2021/08/29 10:07:38;;;;;;;10.30;5.00;;;;;;;;;;5006554;28;20552;-71
2021/08/29 10:10:23;;;;;;;10.57;4.67;;;;;;;;;;5007581;28;20657;-73
2021/08/29 10:12:50;;;;;;;13.17;4.50;;;;;;;;;;5006326;28;20206;-72
2021/08/29 10:15:18;;;;;;;21.03;4.40;;;;;;;;;;5004438;28;20231;-72
2021/08/29 10:17:47;;;;;;;9.93;3.87;;;;;;;;;;5006086;28;20221;-72
2021/08/29 10:20:15;;;;;;;8.63;4.00;;;;;;;;;;5002100;28;20220;-72
2021/08/29 10:22:42;;;;;;;7.60;3.43;;;;;;;;;;5007166;28;20679;-72
2021/08/29 10:25:10;;;;;;;10.80;3.70;;;;;;;;;;5005996;28;20676;-72
2021/08/29 10:27:40;;;;;;;6.80;3.40;;;;;;;;;;5007024;28;20663;-72
2021/08/29 10:30:09;;;;;;;6.20;3.37;;;;;;;;;;5007263;28;20287;-72
2021/08/29 10:32:36;;;;;;;9.70;4.20;;;;;;;;;;5005605;28;20211;-73
2021/08/29 10:35:07;;;;;;;8.00;4.57;;;;;;;;;;5006314;28;20208;-72
2021/08/29 10:37:36;;;;;;;5.40;3.73;;;;;;;;;;5004568;28;20292;-73
2021/08/29 10:40:05;;;;;;;9.10;4.83;;;;;;;;;;5004995;28;20957;-72
2021/08/29 10:42:34;;;;;;;10.50;5.03;;;;;;;;;;5007005;28;20303;-73
2021/08/29 10:45:01;;;;;;;10.33;5.40;;;;;;;;;;5005895;28;20679;-73
2021/08/29 10:47:28;;;;;;;8.97;5.63;;;;;;;;;;5007448;28;20216;-73
2021/08/29 10:49:56;;;;;;;10.13;5.53;;;;;;;;;;5006427;28;20220;-73
2021/08/29 10:52:30;;;;;;;8.40;5.13;;;;;;;;;;5005683;28;20212;-73
2021/08/29 10:54:57;;;;;;;8.70;5.03;;;;;;;;;;5005884;28;20234;-73
2021/08/29 10:57:31;;;;;;;7.87;5.30;;;;;;;;;;5007095;28;20248;-73
2021/08/29 11:00:06;;;;;;;7.57;5.30;;;;;;;;;;5003646;28;21086;-73
2021/08/29 11:02:38;;;;;;;10.47;4.93;;;;;;;;;;5005762;28;20297;-73
2021/08/29 11:05:05;;;;;;;10.83;5.20;;;;;;;;;;5006489;28;20220;-73
2021/08/29 11:07:53;;;;;;;8.57;5.10;;;;;;;;;;5005983;28;20209;-73
2021/08/29 11:10:43;;;;;;;11.93;5.23;;;;;;;;;;5004321;28;20218;-74
2021/08/29 11:13:35;;;;;;;11.30;6.10;;;;;;;;;;5006006;28;20745;-73
2021/08/29 11:16:23;;;;;;;9.13;5.13;;;;;;;;;;5003868;28;20349;-73
2021/08/29 11:19:11;;;;;;;13.13;6.20;;;;;;;;;;5006025;28;20289;-73
2021/08/29 11:22:28;;;;;;;9.43;5.73;;;;;;;;;;5004509;28;20291;-73
2021/08/29 11:24:59;;;;;;;9.23;5.53;;;;;;;;;;4948810;28;20911;-74
2021/08/29 11:27:49;;;;;;;8.27;6.20;;;;;;;;;;4991737;28;20626;-74
2021/08/29 11:30:16;;;;;;;10.87;5.97;;;;;;;;;;5003253;28;20232;-73
2021/08/29 11:32:47;;;;;;;12.33;5.13;;;;;;;;;;5004921;28;20608;-74
2021/08/29 11:35:16;;;;;;;13.33;5.63;;;;;;;;;;5005545;28;20214;-73
2021/08/29 11:37:43;;;;;;;13.07;6.40;;;;;;;;;;5006005;28;20220;-74
2021/08/29 11:40:13;;;;;;;10.73;6.10;;;;;;;;;;5005535;28;20671;-74
2021/08/29 11:42:40;;;;;;;11.67;6.60;;;;;;;;;;5005134;28;20260;-74
2021/08/29 11:45:12;;;;;;;10.90;5.90;;;;;;;;;;5005369;28;20227;-74
2021/08/29 11:47:40;;;;;;;13.60;6.90;;;;;;;;;;5004939;28;20220;-74
2021/08/29 11:50:09;;;;;;;15.60;7.77;;;;;;;;;;5005698;28;20228;-74
2021/08/29 11:52:37;;;;;;;11.90;6.40;;;;;;;;;;5006239;28;20205;-75
2021/08/29 11:55:09;;;;;;;15.47;7.27;;;;;;;;;;5005209;28;20573;-75
2021/08/29 11:57:51;;;;;;;15.33;7.60;;;;;;;;;;5003814;28;20229;-75
2021/08/29 12:00:19;;;;;;;13.57;8.00;;;;;;;;;;5005631;28;20312;-75
2021/08/29 12:02:47;;;;;;;13.60;8.10;;;;;;;;;;5004919;28;20918;-75
2021/08/29 12:05:16;;;;;;;11.13;6.63;;;;;;;;;;5003633;28;20218;-74
2021/08/29 12:07:47;;;;;;;12.07;6.10;;;;;;;;;;5007386;28;20230;-74
2021/08/29 12:10:19;;;;;;;9.37;4.83;;;;;;;;;;5005602;28;20264;-73
2021/08/29 12:12:46;;;;;;;8.80;5.53;;;;;;;;;;5006028;28;20218;-72
2021/08/29 12:15:15;;;;;;;10.37;5.23;;;;;;;;;;5009980;28;20579;-72
2021/08/29 12:17:42;;;;;;;10.13;4.87;;;;;;;;;;5009052;28;20215;-72
2021/08/29 12:20:10;;;;;;;8.57;5.10;;;;;;;;;;5007834;28;20698;-72
2021/08/29 12:22:37;;;;;;;7.77;4.77;;;;;;;;;;5009646;28;20231;-71
2021/08/29 12:25:05;;;;;;;8.80;5.23;;;;;;;;;;5007222;28;20234;-72
2021/08/29 12:27:32;;;;;;;8.80;4.53;;;;;;;;;;5007338;28;20223;-72
2021/08/29 12:30:01;;;;;;;6.33;4.27;;;;;;;;;;5008523;28;20606;-72
2021/08/29 12:32:30;;;;;;;6.83;4.30;;;;;;;;;;5007987;28;20769;-72
2021/08/29 12:34:58;;;;;;;10.83;4.50;;;;;;;;;;5010119;28;20291;-72
2021/08/29 12:37:26;;;;;;;10.93;4.73;;;;;;;;;;5009392;28;20223;-72
2021/08/29 12:39:56;;;;;;;8.97;4.90;;;;;;;;;;5007419;28;20231;-71
2021/08/29 12:42:25;;;;;;;8.93;4.80;;;;;;;;;;5005265;28;20235;-72
2021/08/29 12:44:52;;;;;;;7.10;4.77;;;;;;;;;;5008096;28;20222;-72
2021/08/29 12:47:20;;;;;;;7.57;4.63;;;;;;;;;;5007654;28;20262;-71
2021/08/29 12:49:50;;;;;;;7.70;4.40;;;;;;;;;;5009250;28;20218;-72
2021/08/29 12:52:20;;;;;;;6.37;4.03;;;;;;;;;;5007927;28;20245;-72
2021/08/29 12:54:46;;;;;;;11.43;5.03;;;;;;;;;;5007406;28;20270;-73
2021/08/29 12:57:13;;;;;;;8.10;5.00;;;;;;;;;;5009402;28;20273;-73
2021/08/29 12:59:42;;;;;;;5.33;4.17;;;;;;;;;;5007929;28;20302;-73
2021/08/29 13:02:08;;;;;;;6.10;4.27;;;;;;;;;;5007086;28;20268;-72
2021/08/29 13:04:35;;;;;;;7.70;4.40;;;;;;;;;;5006626;28;20230;-72
2021/08/29 13:07:05;;;;;;;5.80;4.40;;;;;;;;;;5008742;28;20269;-73
2021/08/29 13:09:32;;;;;;;6.73;4.83;;;;;;;;;;5006053;28;20234;-73
2021/08/29 13:11:59;;;;;;;8.40;4.40;;;;;;;;;;5007684;28;20710;-73
2021/08/29 13:14:29;;;;;;;8.53;4.87;;;;;;;;;;5009508;28;20296;-73
2021/08/29 13:16:56;;;;;;;6.67;4.50;;;;;;;;;;5007564;28;20211;-73
2021/08/29 13:19:26;;;;;;;7.27;4.40;;;;;;;;;;5006997;28;20742;-73
2021/08/29 13:21:59;;;;;;;7.83;4.30;;;;;;;;;;5007023;28;20775;-73
2021/08/29 13:24:29;;;;;;;9.47;4.07;;;;;;;;;;5006594;28;20234;-73
2021/08/29 13:26:57;;;;;;;8.37;4.13;;;;;;;;;;5010413;28;20677;-73
2021/08/29 13:29:34;;;;;;;7.90;4.40;;;;;;;;;;5004940;28;20210;-73
2021/08/29 13:32:01;;;;;;;6.23;4.47;;;;;;;;;;5007960;28;20215;-73
2021/08/29 13:34:29;;;;;;;10.97;4.70;;;;;;;;;;5007151;28;20362;-73
2021/08/29 13:36:56;;;;;;;8.67;4.43;;;;;;;;;;5006723;28;20220;-73
2021/08/29 13:39:27;;;;;;;6.23;4.63;;;;;;;;;;5008109;28;20288;-74
2021/08/29 13:42:20;;;;;;;6.87;4.37;;;;;;;;;;5004875;28;20246;-73
2021/08/29 13:44:48;;;;;;;5.67;3.90;;;;;;;;;;5009710;28;20624;-73
2021/08/29 13:47:17;;;;;;;7.30;4.03;;;;;;;;;;5006273;28;20223;-73
2021/08/29 13:49:43;;;;;;;6.10;4.20;;;;;;;;;;5007682;28;20223;-73
2021/08/29 13:52:10;;;;;;;4.70;3.87;;;;;;;;;;5006422;28;20657;-73
2021/08/29 13:54:37;;;;;;;6.63;4.23;;;;;;;;;;5005633;28;20687;-73
2021/08/29 13:57:04;;;;;;;6.13;3.80;;;;;;;;;;5009043;28;20251;-73
2021/08/29 13:59:30;;;;;;;5.77;4.07;;;;;;;;;;5008966;28;20621;-73
2021/08/29 14:01:57;;;;;;;8.17;4.10;;;;;;;;;;5005739;28;20206;-73
2021/08/29 14:04:23;;;;;;;4.97;3.90;;;;;;;;;;5006639;28;20208;-74
2021/08/29 14:06:49;;;;;;;5.30;3.50;;;;;;;;;;5006167;28;20220;-74
2021/08/29 14:09:16;;;;;;;5.43;3.93;;;;;;;;;;5005405;28;20284;-74
2021/08/29 14:11:43;;;;;;;5.67;4.23;;;;;;;;;;5006802;28;20359;-74
2021/08/29 14:14:10;;;;;;;5.30;3.90;;;;;;;;;;5005519;28;20251;-74
2021/08/29 14:16:36;;;;;;;5.07;3.37;;;;;;;;;;5003818;28;20231;-74
2021/08/29 14:19:03;;;;;;;4.60;3.93;;;;;;;;;;5004352;28;20248;-74
2021/08/29 14:21:29;;;;;;;5.63;4.20;;;;;;;;;;5007397;28;20304;-75
2021/08/29 14:23:55;;;;;;;4.67;4.10;;;;;;;;;;5004286;28;20255;-74
2021/08/29 14:26:22;;;;;;;5.17;4.10;;;;;;;;;;5005603;28;20588;-74
2021/08/29 14:28:50;;;;;;;8.07;4.17;;;;;;;;;;5005994;28;20265;-74
2021/08/29 14:31:16;;;;;;;6.43;4.07;;;;;;;;;;5006449;28;20211;-74
2021/08/29 14:33:42;;;;;;;5.33;3.87;;;;;;;;;;5005619;28;20216;-74
2021/08/29 14:36:09;;;;;;;6.97;4.67;;;;;;;;;;5005920;28;20226;-74
2021/08/29 14:38:35;;;;;;;5.80;3.90;;;;;;;;;;5006165;28;20237;-74
2021/08/29 14:41:02;;;;;;;5.57;3.90;;;;;;;;;;5006855;28;20760;-74